Latest Weather Observations for Brisbane

IDQ60901

Issued at 12:01 pm EST Sunday 22 September 2019 (issued every 10 minutes, with the page automatically refreshed every 10 minutes)

About weather observations | Map of Brisbane area stations | Latest observations for Brisbane area | Other Formats
Station Details ID: 040913 Name: BRISBANE Lat: -27.48 Lon: 153.04 Height: 8.13 m
Data from the previous 72 hours. | See also: Recent months at Brisbane
Date/Time
EST
Temp
°C
App
Temp
°C
Dew
Point
°C
Rel
Hum
%
Delta-T
°C
Wind Press
QNH
hPa
Press
MSL
hPa
Rain since
9am
mm
Dir  Spd
km/h
Gust
km/h
Spd
kts
Gust
kts
22/12:00pm 25.4 25.2 15.7 55 5.9 NE 11 17 6 9 1024.4 1024.4 0.0
22/11:30am 25.4 25.5 16.5 58 5.5 NE 11 19 6 10 1024.6 1024.6 0.0
22/11:00am 25.4 26.0 15.4 54 6.0 NNE 6 13 3 7 1025.0 1025.0 0.0
22/10:30am 24.4 25.3 16.1 60 5.1 NNE 6 9 3 5 1025.4 1025.4 0.0
22/10:00am 23.7 25.0 16.2 63 4.5 N 4 11 2 6 1025.7 1025.7 0.0
22/09:30am 22.6 23.0 15.4 64 4.3 NNW 7 15 4 8 1026.0 1026.0 0.0
22/09:00am 22.2 23.1 16.2 69 3.6 NNW 6 11 3 6 1026.0 1026.0 0.2
22/08:30am 20.8 23.1 16.8 78 2.4 CALM 0 4 0 2 1026.2 1026.2 0.2
22/08:00am 20.0 22.1 17.2 84 1.7 ENE 2 7 1 4 1026.3 1026.3 0.2
22/07:30am 19.4 21.7 16.8 85 1.6 CALM 0 2 0 1 1026.1 1026.1 0.2
22/07:00am 19.1 21.5 16.9 87 1.3 CALM 0 0 0 0 1025.8 1025.8 0.2
22/06:30am 19.1 21.6 17.2 89 1.2 CALM 0 0 0 0 1025.6 1025.6 0.2
22/06:00am 18.8 21.2 16.9 89 1.1 CALM 0 0 0 0 1025.3 1025.3 0.2
22/05:30am 19.1 21.7 17.6 91 0.9 CALM 0 0 0 0 1024.9 1024.9 0.2
22/05:00am 18.9 21.5 17.6 92 0.8 CALM 0 0 0 0 1024.6 1024.6 0.2
22/04:30am 18.7 21.3 17.4 92 0.8 CALM 0 0 0 0 1024.4 1024.4 0.2
22/04:00am 18.4 20.9 17.2 93 0.7 CALM 0 0 0 0 1024.1 1024.1 0.2
22/03:30am 17.9 20.1 16.6 92 0.8 CALM 0 0 0 0 1023.9 1023.9 0.2
22/03:00am 18.1 20.3 16.4 90 1.0 CALM 0 0 0 0 1024.0 1024.0 0.2
22/02:30am 18.5 20.4 16.7 89 1.1 NW 2 6 1 3 1024.2 1024.2 0.2
22/02:00am 18.9 21.3 17.0 89 1.1 CALM 0 4 0 2 1024.2 1024.2 0.2
22/01:30am 18.9 21.3 17.0 89 1.1 CALM 0 2 0 1 1024.4 1024.4 0.2
22/01:00am 19.2 21.7 17.2 88 1.2 CALM 0 4 0 2 1024.5 1024.5 0.2
22/12:30am 19.4 22.0 17.4 88 1.2 CALM 0 2 0 1 1024.8 1024.8 0.2
22/12:00am 19.5 21.8 17.6 89 1.2 NE 2 4 1 2 1024.8 1024.8 0.2
 
Date/Time
EST
Temp
°C
App
Temp
°C
Dew
Point
°C
Rel
Hum
%
Delta-T
°C
Wind Press
QNH
hPa
Press
MSL
hPa
Rain since
9am
mm
Dir  Spd
km/h
Gust
km/h
Spd
kts
Gust
kts
21/11:30pm 19.1 21.5 17.1 88 1.2 CALM 0 0 0 0 1024.9 1024.9 0.2
21/11:00pm 19.4 21.6 17.4 88 1.2 ENE 2 7 1 4 1024.8 1024.8 0.2
21/10:30pm 19.6 21.3 17.2 86 1.5 NE 4 7 2 4 1025.0 1025.0 0.2
21/10:00pm 19.7 20.9 16.9 84 1.7 NE 6 13 3 7 1024.9 1024.9 0.2
21/09:30pm 19.7 21.3 16.9 84 1.7 NE 4 9 2 5 1024.8 1024.8 0.2
21/09:00pm 19.8 21.4 16.8 83 1.8 NE 4 9 2 5 1024.7 1024.7 0.2
21/08:30pm 20.0 21.5 16.6 81 2.1 NE 4 6 2 3 1024.8 1024.8 0.2
21/08:00pm 20.2 21.1 16.6 80 2.2 NNE 7 13 4 7 1024.6 1024.6 0.2
21/07:30pm 20.3 21.4 16.5 79 2.3 NNE 6 13 3 7 1024.2 1024.2 0.2
21/07:00pm 20.7 21.8 16.5 77 2.5 NNE 6 13 3 7 1023.8 1023.8 0.2
21/06:30pm 20.7 21.6 16.1 75 2.8 NNE 6 11 3 6 1023.5 1023.5 0.2
21/06:00pm 21.0 21.1 15.5 71 3.3 NNE 9 15 5 8 1023.2 1023.2 0.2
21/05:30pm 21.5 21.5 15.1 67 3.8 NNE 9 17 5 9 1023.1 1023.1 0.2
21/05:00pm 22.3 21.6 14.2 60 4.7 NNE 11 30 6 16 1022.9 1022.9 0.2
21/04:30pm 23.3 22.4 13.8 55 5.5 NNE 11 26 6 14 1022.6 1022.6 0.2
21/04:00pm 23.7 22.7 13.3 52 6.0 NE 11 20 6 11 1022.5 1022.5 0.2
21/03:30pm 24.1 23.2 13.6 52 6.1 NE 11 22 6 12 1022.8 1022.8 0.2
21/03:00pm 24.5 23.9 14.6 54 5.9 NNE 11 20 6 11 1022.9 1022.9 0.2
21/02:30pm 25.2 24.1 13.1 47 7.0 NE 11 22 6 12 1023.0 1023.0 0.2
21/02:00pm 25.6 23.5 9.8 37 8.7 NE 11 28 6 15 1023.1 1023.1 0.2
21/01:30pm 25.9 24.2 11.3 40 8.3 NNE 11 22 6 12 1023.3 1023.3 0.2
21/01:00pm 26.1 25.0 11.8 41 8.1 NNE 9 22 5 12 1023.6 1023.6 0.2
21/12:30pm 26.2 25.4 13.0 44 7.7 NNE 9 22 5 12 1023.9 1023.9 0.2
21/12:00pm 25.5 23.9 11.7 42 7.8 NNE 11 22 6 12 1024.5 1024.5 0.2
21/11:30am 25.2 24.2 13.4 48 6.9 NE 11 20 6 11 1024.8 1024.8 0.2
21/11:00am 25.3 25.1 14.7 51 6.3 NNE 9 24 5 13 1025.2 1025.2 0.2
21/10:30am 24.5 24.4 14.9 55 5.7 NE 9 17 5 9 1025.6 1025.6 0.0
21/10:00am 24.5 25.1 15.7 58 5.3 NE 7 15 4 8 1026.0 1026.0 0.0
21/09:30am 23.1 24.1 16.4 66 4.1 NE 6 13 3 7 1026.0 1026.0 0.0
21/09:00am 21.5 23.4 16.7 74 2.9 NNE 2 9 1 5 1026.3 1026.3 4.4
21/08:30am 21.5 23.9 17.1 76 2.7 CALM 0 6 0 3 1026.5 1026.5 4.4
21/08:00am 20.0 22.4 17.0 83 1.8 CALM 0 4 0 2 1026.4 1026.4 4.4
21/07:30am 18.8 20.7 16.6 87 1.3 W 2 6 1 3 1026.2 1026.2 4.4
21/07:00am 18.0 20.4 17.0 94 0.6 CALM 0 4 0 2 1026.0 1026.0 4.4
21/06:30am 17.1 18.8 16.1 94 0.6 WSW 2 4 1 2 1025.8 1025.8 3.2
21/06:00am 16.8 18.2 15.3 91 0.9 SSW 2 4 1 2 1025.5 1025.5 0.0
21/05:30am 16.5 18.1 15.0 91 0.9 CALM 0 2 0 1 1025.4 1025.4 0.0
21/05:00am 16.6 18.0 15.3 92 0.8 WSW 2 4 1 2 1025.3 1025.3 0.0
21/04:30am 16.6 18.3 15.3 92 0.8 CALM 0 2 0 1 1024.8 1024.8 0.0
21/04:00am 16.8 18.5 15.3 91 0.9 CALM 0 4 0 2 1024.5 1024.5 0.0
21/03:30am 17.2 19.1 15.7 91 0.9 CALM 0 2 0 1 1024.3 1024.3 0.0
21/03:00am 17.3 19.4 16.2 93 0.6 CALM 0 0 0 0 1024.4 1024.4 0.0
21/02:30am 17.0 19.0 15.9 93 0.6 CALM 0 0 0 0 1024.4 1024.4 0.0
21/02:00am 16.8 18.4 15.0 89 1.0 CALM 0 0 0 0 1024.5 1024.5 0.0
21/01:30am 17.4 19.2 15.6 89 1.1 CALM 0 0 0 0 1024.7 1024.7 0.0
21/01:00am 18.0 19.9 15.8 87 1.3 CALM 0 0 0 0 1024.8 1024.8 0.0
21/12:30am 18.3 20.0 16.1 87 1.3 WSW 2 4 1 2 1024.9 1024.9 0.0
21/12:00am 18.2 20.3 16.2 88 1.2 CALM 0 0 0 0 1025.0 1025.0 0.0
 
Date/Time
EST
Temp
°C
App
Temp
°C
Dew
Point
°C
Rel
Hum
%
Delta-T
°C
Wind Press
QNH
hPa
Press
MSL
hPa
Rain since
9am
mm
Dir  Spd
km/h
Gust
km/h
Spd
kts
Gust
kts
20/11:30pm 17.6 19.3 16.3 92 0.8 SSE 2 4 1 2 1025.2 1025.2 0.0
20/11:00pm 16.8 18.5 15.2 90 0.9 CALM 0 0 0 0 1025.2 1025.2 0.0
20/10:30pm 17.2 19.0 15.5 90 1.0 CALM 0 0 0 0 1025.3 1025.3 0.0
20/10:00pm 17.3 19.1 15.5 89 1.0 CALM 0 0 0 0 1025.3 1025.3 0.0
20/09:30pm 17.5 19.2 15.3 87 1.3 CALM 0 0 0 0 1025.3 1025.3 0.0
20/09:00pm 17.8 19.5 15.2 85 1.5 CALM 0 0 0 0 1025.5 1025.5 0.0
20/08:30pm 18.7 20.2 15.6 82 1.8 E 2 4 1 2 1025.4 1025.4 0.0
20/08:00pm 19.2 20.4 15.9 81 2.0 E 4 6 2 3 1025.2 1025.2 0.0
20/07:30pm 19.5 20.7 15.8 79 2.2 E 4 7 2 4 1024.9 1024.9 0.0
20/07:00pm 19.8 20.5 15.7 77 2.4 E 6 9 3 5 1024.6 1024.6 0.0
20/06:30pm 20.2 20.3 15.6 75 2.7 E 9 17 5 9 1024.1 1024.1 0.0
20/06:00pm 20.6 20.2 15.2 71 3.2 E 11 20 6 11 1023.5 1023.5 0.0
20/05:30pm 21.3 19.9 14.5 65 4.0 ENE 15 26 8 14 1023.3 1023.3 0.0
20/05:00pm 22.0 21.3 14.4 62 4.4 ENE 11 19 6 10 1023.2 1023.2 0.0
20/04:30pm 22.5 22.0 14.9 62 4.5 ENE 11 19 6 10 1022.8 1022.8 0.0
20/04:00pm 22.9 21.4 14.2 58 5.1 E 15 22 8 12 1022.5 1022.5 0.0
20/03:30pm 23.1 22.0 14.4 58 5.1 ENE 13 19 7 10 1022.4 1022.4 0.0
20/03:00pm 24.2 23.6 14.6 55 5.7 ENE 11 19 6 10 1022.5 1022.5 0.0
20/02:30pm 24.7 23.7 14.5 53 6.1 ENE 13 24 7 13 1022.6 1022.6 0.0
20/02:00pm 24.8 23.1 13.7 50 6.5 ENE 15 22 8 12 1022.9 1022.9 0.0
20/01:30pm 24.9 23.8 13.1 48 6.9 NE 11 20 6 11 1023.2 1023.2 0.0
20/01:00pm 26.4 26.3 13.9 46 7.4 N 7 15 4 8 1023.6 1023.6 0.0
20/12:30pm 25.5 25.0 13.7 48 6.9 ENE 9 15 5 8 1023.9 1023.9 0.0
20/12:00pm 25.1 24.1 13.3 48 6.9 ENE 11 19 6 10 1024.3 1024.3 0.0
20/11:30am 25.2 24.9 13.4 48 6.9 NE 7 15 4 8 1024.7 1024.7 0.0
20/11:00am 25.2 24.7 12.8 46 7.1 N 7 13 4 7 1025.0 1025.0 0.0
20/10:30am 24.4 23.7 13.3 50 6.5 ENE 9 17 5 9 1025.2 1025.2 0.0
20/10:00am 23.9 25.1 13.7 53 5.9 CALM 0 9 0 5 1025.7 1025.7 0.0
20/09:30am 22.8 23.6 13.8 57 5.2 NE 2 7 1 4 1026.0 1026.0 0.0
20/09:00am 21.9 22.0 13.8 60 4.7 E 6 11 3 6 1026.0 1026.0 0.0
20/08:30am 21.3 20.9 14.0 63 4.2 ESE 9 15 5 8 1026.0 1026.0 0.0
20/08:00am 19.8 19.9 12.8 64 3.9 S 4 9 2 5 1026.2 1026.2 0.0
20/07:30am 18.0 17.8 11.8 67 3.4 SSW 4 7 2 4 1026.1 1026.1 0.0
20/07:00am 16.5 16.1 11.0 70 2.9 WSW 4 6 2 3 1026.1 1026.1 0.0
20/06:30am 15.5 14.8 11.3 76 2.3 WSW 6 9 3 5 1025.7 1025.7 0.0
20/06:00am 15.0 14.7 11.4 79 1.9 WSW 4 7 2 4 1025.1 1025.1 0.0
20/05:30am 14.5 14.9 11.3 81 1.7 CALM 0 2 0 1 1024.8 1024.8 0.0
20/05:00am 15.0 15.2 11.8 81 1.7 WSW 2 6 1 3 1024.7 1024.7 0.0
20/04:30am 15.2 15.4 12.0 81 1.7 WSW 2 6 1 3 1024.4 1024.4 0.0
20/04:00am 15.4 16.1 12.2 81 1.7 CALM 0 4 0 2 1024.1 1024.1 0.0
20/03:30am 16.0 16.1 12.7 81 1.8 SSW 4 7 2 4 1024.0 1024.0 0.0
20/03:00am 16.3 16.5 13.2 82 1.7 WSW 4 7 2 4 1023.9 1023.9 0.0
20/02:30am 16.6 17.4 13.7 83 1.6 SW 2 4 1 2 1023.9 1023.9 0.0
20/02:00am 16.4 17.5 13.5 83 1.6 CALM 0 0 0 0 1024.0 1024.0 0.0
20/01:30am 16.4 17.1 13.5 83 1.6 SSW 2 4 1 2 1024.2 1024.2 0.0
20/01:00am 16.7 17.5 13.8 83 1.6 SW 2 4 1 2 1024.4 1024.4 0.0
20/12:30am 16.9 17.9 14.4 85 1.4 WSW 2 6 1 3 1024.4 1024.4 0.0
20/12:00am 16.6 17.6 14.2 86 1.4 WSW 2 4 1 2 1024.1 1024.1 0.0
 
Date/Time
EST
Temp
°C
App
Temp
°C
Dew
Point
°C
Rel
Hum
%
Delta-T
°C
Wind Press
QNH
hPa
Press
MSL
hPa
Rain since
9am
mm
Dir  Spd
km/h
Gust
km/h
Spd
kts
Gust
kts
19/11:30pm 16.2 17.3 13.5 84 1.5 CALM 0 0 0 0 1024.1 1024.1 0.0
19/11:00pm 16.5 17.7 13.8 84 1.5 CALM 0 2 0 1 1024.1 1024.1 0.0
19/10:30pm 16.9 18.1 13.8 82 1.8 CALM 0 2 0 1 1024.1 1024.1 0.0
19/10:00pm 17.1 18.4 14.0 82 1.8 CALM 0 0 0 0 1024.2 1024.2 0.0
19/09:30pm 17.5 18.6 13.6 78 2.2 CALM 0 0 0 0 1024.2 1024.2 0.0
19/09:00pm 18.0 18.9 14.1 78 2.2 ESE 2 4 1 2 1024.2 1024.2 0.0
19/08:30pm 17.9 18.7 13.8 77 2.3 E 2 4 1 2 1024.1 1024.1 0.0
19/08:00pm 18.0 19.2 13.7 76 2.4 CALM 0 2 0 1 1023.9 1023.9 0.0
19/07:30pm 18.6 19.5 13.9 74 2.7 E 2 6 1 3 1023.7 1023.7 0.0
19/07:00pm 19.1 19.3 14.1 73 2.9 E 6 7 3 4 1023.2 1023.2 0.0
19/06:30pm 19.4 19.5 14.0 71 3.1 ENE 6 9 3 5 1023.0 1023.0 0.0
19/06:00pm 19.8 19.8 14.2 70 3.2 ENE 7 17 4 9 1022.8 1022.8 0.0
19/05:30pm 20.1 19.9 13.6 66 3.7 ENE 7 15 4 8 1022.6 1022.6 0.0
19/05:00pm 20.8 20.0 12.8 60 4.5 ENE 9 20 5 11 1022.3 1022.3 0.0
19/04:30pm 21.2 20.5 13.1 60 4.6 NE 9 17 5 9 1022.0 1022.0 0.0
19/04:00pm 21.5 20.2 13.7 61 4.5 ENE 13 20 7 11 1021.9 1021.9 0.0
19/03:30pm 22.4 21.3 14.3 60 4.7 ENE 13 22 7 12 1021.6 1021.6 0.0
19/03:00pm 22.7 22.3 14.0 58 5.1 NE 9 19 5 10 1021.7 1021.7 0.0
19/02:30pm 22.6 20.9 13.7 57 5.2 NE 15 26 8 14 1021.6 1021.6 0.0
19/02:00pm 23.8 22.5 13.6 52 5.9 NE 13 22 7 12 1021.6 1021.6 0.0
19/01:30pm 24.4 23.4 12.4 47 6.9 NE 9 20 5 11 1021.7 1021.7 0.0
19/01:00pm 24.6 22.8 12.2 46 7.1 ENE 13 19 7 10 1021.6 1021.6 0.0
19/12:30pm 24.3 22.7 11.6 45 7.2 ENE 11 19 6 10 1021.8 1021.8 0.0

Latest Capital City Observations: Canberra | Sydney | Melbourne | Brisbane | Adelaide | Perth | Hobart | Darwin

Other formats

Comma delimited format used in spreadsheet applications
http://www.bom.gov.au/fwo/IDQ60901/IDQ60901.94576.axf

JavaScript Object Notation format (JSON) in row-major order
http://www.bom.gov.au/fwo/IDQ60901/IDQ60901.94576.json

Data quality

Most of these data are generated automatically and are frequently updated. Quality checks on data are not normally performed. It is possible for incorrect values to appear. Refer to information at About Latest Weather Observations and please check the disclaimer before using these data.